Time;durP1;ratioP1;P1;durP2;ratioP2;P2;SDS_P1;SDS_P2;PMS_P1;PMS_P2;Temp;Humidity;BMP_temperature;BMP_pressure;BME280_temperature;BME280_humidity;BME280_pressure;Samples;Min_cycle;Max_cycle;Signal;HPM_P1;HPM_P2
2022/09/23 00:00:08;;;;;;;;;;;;;;;;;;5079583;28;19923;-65
2022/09/23 00:02:33;;;;;;;;;;;;;;;;;;5068084;28;20303;-65
2022/09/23 00:04:58;;;;;;;;;;;;;;;;;;5084765;28;20422;-65
2022/09/23 00:07:23;;;;;;;;;;;;;;;;;;5087374;28;20585;-64
2022/09/23 00:09:50;;;;;;;;;;;;;;;;;;5061020;28;20357;-65
2022/09/23 00:12:15;;;;;;;;;;;;;;;;;;5076347;28;19912;-64
2022/09/23 00:14:40;;;;;;;;;;;;;;;;;;5078707;28;20250;-64
2022/09/23 00:17:06;;;;;;;;;;;;;;;;;;5084218;28;20007;-64
2022/09/23 00:19:31;;;;;;;;;;;;;;;;;;5066918;28;19913;-64
2022/09/23 00:21:56;;;;;;;;;;;;;;;;;;5090230;28;20291;-64
2022/09/23 00:24:21;;;;;;;;;;;;;;;;;;5093546;28;19912;-64
2022/09/23 00:26:46;;;;;;;;;;;;;;;;;;5067855;28;20292;-64
2022/09/23 00:29:11;;;;;;;;;;;;;;;;;;5080654;28;19913;-65
2022/09/23 00:31:37;;;;;;;;;;;;;;;;;;5089023;28;19919;-64
2022/09/23 00:34:02;;;;;;;;;;;;;;;;;;5079674;28;20372;-64
2022/09/23 00:36:27;;;;;;;;;;;;;;;;;;5078901;28;19912;-64
2022/09/23 00:38:52;;;;;;;;;;;;;;;;;;5070151;28;19919;-64
2022/09/23 00:41:17;;;;;;;;;;;;;;;;;;5058296;28;19939;-63
2022/09/23 00:43:42;;;;;;;;;;;;;;;;;;5071766;28;19919;-64
2022/09/23 00:46:08;;;;;;;;;;;;;;;;;;5053734;28;19919;-64
2022/09/23 00:48:33;;;;;;;;;;;;;;;;;;5079404;28;19916;-64
2022/09/23 00:50:58;;;;;;;;;;;;;;;;;;5082495;28;19922;-64
2022/09/23 00:53:23;;;;;;;;;;;;;;;;;;5070710;28;19948;-65
2022/09/23 00:55:48;;;;;;;;;;;;;;;;;;5077667;28;20383;-64
2022/09/23 00:58:13;;;;;;;;;;;;;;;;;;5084862;28;20384;-64
2022/09/23 01:00:39;;;;;;;;;;;;;;;;;;5078398;28;20020;-63
2022/09/23 01:03:05;;;;;;;;;;;;;;;;;;5065054;28;20003;-63
2022/09/23 01:05:30;;;;;;;;;;;;;;;;;;5075614;28;20003;-64
2022/09/23 01:07:56;;;;;;;;;;;;;;;;;;5064367;28;19919;-65
2022/09/23 01:10:22;;;;;;;;;;;;;;;;;;5079469;28;19955;-63
2022/09/23 01:12:47;;;;;;;;;;;;;;;;;;5081790;28;19944;-63
2022/09/23 01:15:12;;;;;;;;;;;;;;;;;;5082451;28;20445;-63
2022/09/23 01:17:38;;;;;;;;;;;;;;;;;;5083568;28;19974;-63
2022/09/23 01:20:03;;;;;;;;;;;;;;;;;;5070725;28;19916;-64
2022/09/23 01:22:28;;;;;;;;;;;;;;;;;;5086580;28;20364;-64
2022/09/23 01:24:53;;;;;;;;;;;;;;;;;;5086536;28;19922;-63
2022/09/23 01:27:18;;;;;;;;;;;;;;;;;;5062809;28;19955;-64
2022/09/23 01:29:44;;;;;;;;;;;;;;;;;;5093572;28;19958;-63
2022/09/23 01:32:09;;;;;;;;;;;;;;;;;;5082660;28;20360;-64
2022/09/23 01:34:34;;;;;;;;;;;;;;;;;;5076671;28;19916;-62
2022/09/23 01:36:59;;;;;;;;;;;;;;;;;;5055876;28;20288;-63
2022/09/23 01:39:24;;;;;;;;;;;;;;;;;;5087584;28;19912;-63
2022/09/23 01:41:50;;;;;;;;;;;;;;;;;;5080938;28;19916;-64
2022/09/23 01:44:15;;;;;;;;;;;;;;;;;;5088953;28;19924;-64
2022/09/23 01:46:41;;;;;;;;;;;;;;;;;;5076505;28;19985;-64
2022/09/23 01:49:06;;;;;;;;;;;;;;;;;;5089650;28;19912;-64
2022/09/23 01:51:31;;;;;;;;;;;;;;;;;;5065038;28;19916;-64
2022/09/23 01:53:56;;;;;;;;;;;;;;;;;;5098714;28;19916;-64
2022/09/23 01:56:21;;;;;;;;;;;;;;;;;;5067787;28;20352;-64
2022/09/23 01:58:47;;;;;;;;;;;;;;;;;;5077533;28;19912;-64
2022/09/23 02:01:13;;;;;;;;;;;;;;;;;;5087278;28;19999;-65
2022/09/23 02:03:39;;;;;;;;;;;;;;;;;;5086375;28;19941;-64
2022/09/23 02:06:04;;;;;;;;;;;;;;;;;;5082835;28;20010;-64
2022/09/23 02:08:29;;;;;;;;;;;;;;;;;;5081026;28;19978;-64
2022/09/23 02:10:55;;;;;;;;;;;;;;;;;;5083695;28;19985;-62
2022/09/23 02:13:20;;;;;;;;;;;;;;;;;;5080848;28;19919;-64
2022/09/23 02:15:45;;;;;;;;;;;;;;;;;;5075306;28;19920;-64
2022/09/23 02:18:10;;;;;;;;;;;;;;;;;;5059893;28;19920;-64
2022/09/23 02:20:35;;;;;;;;;;;;;;;;;;5066683;28;19927;-63
2022/09/23 02:23:01;;;;;;;;;;;;;;;;;;5066282;28;19912;-64
2022/09/23 02:25:27;;;;;;;;;;;;;;;;;;5064578;28;20288;-64
2022/09/23 02:27:52;;;;;;;;;;;;;;;;;;5058050;28;19923;-64
2022/09/23 02:30:17;;;;;;;;;;;;;;;;;;5062320;28;19923;-65
2022/09/23 02:32:43;;;;;;;;;;;;;;;;;;5063663;28;19916;-64
2022/09/23 02:35:08;;;;;;;;;;;;;;;;;;5070404;28;19913;-64
2022/09/23 02:37:34;;;;;;;;;;;;;;;;;;5060968;28;19966;-64
2022/09/23 02:39:59;;;;;;;;;;;;;;;;;;5060427;28;19913;-64
2022/09/23 02:42:24;;;;;;;;;;;;;;;;;;5069869;28;19917;-64
2022/09/23 02:44:49;;;;;;;;;;;;;;;;;;5069102;28;19912;-64
2022/09/23 02:47:14;;;;;;;;;;;;;;;;;;5070156;28;19961;-63
2022/09/23 02:49:39;;;;;;;;;;;;;;;;;;5067125;28;20168;-64
2022/09/23 02:52:06;;;;;;;;;;;;;;;;;;5063386;28;20387;-64
2022/09/23 02:54:32;;;;;;;;;;;;;;;;;;5063395;28;20351;-64
2022/09/23 02:56:57;;;;;;;;;;;;;;;;;;5058595;28;19925;-64
2022/09/23 02:59:22;;;;;;;;;;;;;;;;;;5058116;28;19913;-63
2022/09/23 03:01:47;;;;;;;;;;;;;;;;;;5063890;28;19968;-64
2022/09/23 03:04:13;;;;;;;;;;;;;;;;;;5059272;28;19913;-64
2022/09/23 03:06:38;;;;;;;;;;;;;;;;;;5053202;28;19913;-64
2022/09/23 03:09:03;;;;;;;;;;;;;;;;;;5057197;28;19917;-64
2022/09/23 03:11:30;;;;;;;;;;;;;;;;;;5063356;28;19924;-64
2022/09/23 03:13:55;;;;;;;;;;;;;;;;;;5067471;28;19940;-63
2022/09/23 03:16:20;;;;;;;;;;;;;;;;;;5059229;28;19955;-64
2022/09/23 03:18:46;;;;;;;;;;;;;;;;;;5044422;28;19920;-65
2022/09/23 03:21:11;;;;;;;;;;;;;;;;;;5060759;28;19921;-64
2022/09/23 03:23:36;;;;;;;;;;;;;;;;;;5057523;28;19952;-64
2022/09/23 03:26:01;;;;;;;;;;;;;;;;;;5048597;28;20368;-65
2022/09/23 03:28:26;;;;;;;;;;;;;;;;;;5041390;28;20448;-63
2022/09/23 03:30:51;;;;;;;;;;;;;;;;;;5052400;28;19917;-64
2022/09/23 03:33:16;;;;;;;;;;;;;;;;;;5036783;28;20059;-61
2022/09/23 03:38:25;;;;;;;;;;;;;;;;;;5060553;28;20439;-64
2022/09/23 03:40:50;;;;;;;;;;;;;;;;;;5062008;28;19909;-64
2022/09/23 03:43:15;;;;;;;;;;;;;;;;;;5040610;28;20328;-64
2022/09/23 03:45:41;;;;;;;;;;;;;;;;;;5038591;28;20280;-64
2022/09/23 03:48:06;;;;;;;;;;;;;;;;;;5060131;28;20289;-63
2022/09/23 03:50:31;;;;;;;;;;;;;;;;;;5057246;28;20016;-64
2022/09/23 03:52:57;;;;;;;;;;;;;;;;;;5053312;28;19917;-64
2022/09/23 03:55:22;;;;;;;;;;;;;;;;;;5065074;28;20404;-65
2022/09/23 03:57:47;;;;;;;;;;;;;;;;;;5060365;28;20357;-64
2022/09/23 04:00:12;;;;;;;;;;;;;;;;;;5038439;28;20357;-65
2022/09/23 04:02:38;;;;;;;;;;;;;;;;;;5056552;28;19916;-65
2022/09/23 04:05:03;;;;;;;;;;;;;;;;;;5042519;28;20356;-69
2022/09/23 04:07:28;;;;;;;;;;;;;;;;;;5062468;28;19965;-68
2022/09/23 04:09:54;;;;;;;;;;;;;;;;;;5042099;28;20291;-68
2022/09/23 04:12:19;;;;;;;;;;;;;;;;;;5058492;28;20993;-63
2022/09/23 04:14:44;;;;;;;;;;;;;;;;;;5055243;28;19912;-67
2022/09/23 04:17:09;;;;;;;;;;;;;;;;;;5059868;28;19930;-68
2022/09/23 04:19:34;;;;;;;;;;;;;;;;;;5078017;28;19927;-68
2022/09/23 04:21:59;;;;;;;;;;;;;;;;;;5067913;28;19974;-68
2022/09/23 04:24:25;;;;;;;;;;;;;;;;;;5073851;28;19920;-67
2022/09/23 04:26:51;;;;;;;;;;;;;;;;;;5072223;28;20031;-68
2022/09/23 04:29:16;;;;;;;;;;;;;;;;;;5079613;28;19926;-68
2022/09/23 04:31:41;;;;;;;;;;;;;;;;;;5081665;28;19916;-67
2022/09/23 04:34:06;;;;;;;;;;;;;;;;;;5056254;28;19923;-67
2022/09/23 04:36:31;;;;;;;;;;;;;;;;;;5074271;28;19912;-67
2022/09/23 04:38:57;;;;;;;;;;;;;;;;;;5070939;28;19951;-67
2022/09/23 04:41:22;;;;;;;;;;;;;;;;;;5079133;28;19912;-67
2022/09/23 04:43:47;;;;;;;;;;;;;;;;;;5066054;28;19917;-66
2022/09/23 04:46:12;;;;;;;;;;;;;;;;;;5056983;28;19965;-68
2022/09/23 04:48:37;;;;;;;;;;;;;;;;;;5065088;28;19912;-68
2022/09/23 04:51:03;;;;;;;;;;;;;;;;;;5081930;28;19920;-69
2022/09/23 04:53:28;;;;;;;;;;;;;;;;;;5076488;28;19920;-67
2022/09/23 04:55:53;;;;;;;;;;;;;;;;;;5084933;28;19919;-68
2022/09/23 04:58:21;;;;;;;;;;;;;;;;;;5059966;28;20291;-70
2022/09/23 05:00:46;;;;;;;;;;;;;;;;;;5076817;28;19920;-69
2022/09/23 05:03:12;;;;;;;;;;;;;;;;;;5059304;28;19913;-68
2022/09/23 05:05:37;;;;;;;;;;;;;;;;;;5077092;28;19912;-68
2022/09/23 05:08:02;;;;;;;;;;;;;;;;;;5078016;28;20300;-68
2022/09/23 05:10:28;;;;;;;;;;;;;;;;;;5078306;28;19925;-69
2022/09/23 05:12:53;;;;;;;;;;;;;;;;;;5057877;28;19995;-68
2022/09/23 05:15:18;;;;;;;;;;;;;;;;;;5080639;28;20352;-68
2022/09/23 05:17:43;;;;;;;;;;;;;;;;;;5070378;28;19931;-69
2022/09/23 05:20:09;;;;;;;;;;;;;;;;;;5080628;28;19951;-69
2022/09/23 05:22:34;;;;;;;;;;;;;;;;;;5085044;28;19912;-69
2022/09/23 05:25:00;;;;;;;;;;;;;;;;;;5064351;28;19934;-67
2022/09/23 05:27:25;;;;;;;;;;;;;;;;;;5067190;28;19922;-69
2022/09/23 05:29:51;;;;;;;;;;;;;;;;;;5080039;28;19912;-68
2022/09/23 05:32:17;;;;;;;;;;;;;;;;;;5084487;28;19920;-67
2022/09/23 05:34:42;;;;;;;;;;;;;;;;;;5087657;28;19912;-68
2022/09/23 05:37:07;;;;;;;;;;;;;;;;;;5058966;28;19916;-68
2022/09/23 05:39:32;;;;;;;;;;;;;;;;;;5087861;28;19999;-67
2022/09/23 05:41:59;;;;;;;;;;;;;;;;;;5082097;28;19912;-67
2022/09/23 05:44:24;;;;;;;;;;;;;;;;;;5078092;28;20011;-68
2022/09/23 05:46:49;;;;;;;;;;;;;;;;;;5082011;28;20074;-68
2022/09/23 05:49:14;;;;;;;;;;;;;;;;;;5088887;28;20280;-68
2022/09/23 05:51:39;;;;;;;;;;;;;;;;;;5062718;28;19927;-69
2022/09/23 05:54:04;;;;;;;;;;;;;;;;;;5075502;28;20393;-68
2022/09/23 05:56:30;;;;;;;;;;;;;;;;;;5080409;28;19913;-68
2022/09/23 05:58:55;;;;;;;;;;;;;;;;;;5060096;28;19919;-68
2022/09/23 06:01:20;;;;;;;;;;;;;;;;;;5059681;28;19912;-68
2022/09/23 06:03:46;;;;;;;;;;;;;;;;;;5060287;28;19912;-68
2022/09/23 06:06:13;;;;;;;;;;;;;;;;;;5083656;28;20353;-68
2022/09/23 06:08:38;;;;;;;;;;;;;;;;;;5077690;28;20026;-68
2022/09/23 06:11:06;;;;;;;;;;;;;;;;;;5089328;28;20385;-68
2022/09/23 06:13:31;;;;;;;;;;;;;;;;;;5060505;28;20029;-69
2022/09/23 06:15:56;;;;;;;;;;;;;;;;;;5064334;28;19912;-68
2022/09/23 06:18:21;;;;;;;;;;;;;;;;;;5070783;28;19920;-67
2022/09/23 06:20:47;;;;;;;;;;;;;;;;;;5061783;28;19912;-68
2022/09/23 06:23:12;;;;;;;;;;;;;;;;;;5077032;28;19916;-68
2022/09/23 06:25:37;;;;;;;;;;;;;;;;;;5058535;28;19965;-68
2022/09/23 06:28:02;;;;;;;;;;;;;;;;;;5074906;28;19912;-68
2022/09/23 06:30:27;;;;;;;;;;;;;;;;;;5077078;28;20023;-68
2022/09/23 06:32:52;;;;;;;;;;;;;;;;;;5076484;28;19939;-68
2022/09/23 06:35:18;;;;;;;;;;;;;;;;;;5076824;28;19913;-68
2022/09/23 06:37:43;;;;;;;;;;;;;;;;;;5075529;28;20276;-68
2022/09/23 06:40:08;;;;;;;;;;;;;;;;;;5062305;28;20360;-68
2022/09/23 06:42:33;;;;;;;;;;;;;;;;;;5057693;28;19922;-67
2022/09/23 06:44:58;;;;;;;;;;;;;;;;;;5063999;28;19919;-68
2022/09/23 06:47:24;;;;;;;;;;;;;;;;;;5073455;28;19975;-69
2022/09/23 06:49:50;;;;;;;;;;;;;;;;;;5076687;28;19959;-68
2022/09/23 06:52:15;;;;;;;;;;;;;;;;;;5074713;28;20443;-68
2022/09/23 06:54:40;;;;;;;;;;;;;;;;;;5074542;28;20024;-67
2022/09/23 06:57:06;;;;;;;;;;;;;;;;;;5073540;28;19920;-67
2022/09/23 06:59:31;;;;;;;;;;;;;;;;;;5079046;28;19912;-67
2022/09/23 07:01:56;;;;;;;;;;;;;;;;;;5077581;28;19913;-67
2022/09/23 07:04:21;;;;;;;;;;;;;;;;;;5079736;28;19913;-68
2022/09/23 07:06:46;;;;;;;;;;;;;;;;;;5062592;28;20008;-68
2022/09/23 07:09:11;;;;;;;;;;;;;;;;;;5073742;28;20276;-68
2022/09/23 07:11:37;;;;;;;;;;;;;;;;;;5085621;28;19999;-67
2022/09/23 07:14:02;;;;;;;;;;;;;;;;;;5064403;28;19920;-68
2022/09/23 07:16:27;;;;;;;;;;;;;;;;;;5063367;28;19916;-66
2022/09/23 07:18:52;;;;;;;;;;;;;;;;;;5062449;28;19931;-68
2022/09/23 07:21:17;;;;;;;;;;;;;;;;;;5062947;28;19920;-68
2022/09/23 07:23:43;;;;;;;;;;;;;;;;;;5050635;28;19965;-68
2022/09/23 07:26:08;;;;;;;;;;;;;;;;;;5052464;28;19917;-68
2022/09/23 07:28:33;;;;;;;;;;;;;;;;;;5055408;28;20370;-68
2022/09/23 07:30:58;;;;;;;;;;;;;;;;;;5053687;28;19924;-67
2022/09/23 07:33:23;;;;;;;;;;;;;;;;;;5054752;28;20387;-68
2022/09/23 07:35:48;;;;;;;;;;;;;;;;;;5054843;28;19923;-68
2022/09/23 07:38:13;;;;;;;;;;;;;;;;;;5056536;28;20131;-68
2022/09/23 07:40:39;;;;;;;;;;;;;;;;;;5054370;28;19912;-69
2022/09/23 07:43:04;;;;;;;;;;;;;;;;;;5058227;28;19913;-69
2022/09/23 07:45:32;;;;;;;;;;;;;;;;;;5058087;28;19920;-69
2022/09/23 07:47:57;;;;;;;;;;;;;;;;;;5049711;28;19917;-68
2022/09/23 07:50:22;;;;;;;;;;;;;;;;;;5056371;28;20274;-68
2022/09/23 07:52:51;;;;;;;;;;;;;;;;;;5055914;28;19948;-68
2022/09/23 07:55:17;;;;;;;;;;;;;;;;;;5056894;28;19928;-68
2022/09/23 07:57:42;;;;;;;;;;;;;;;;;;5054959;28;20322;-68
2022/09/23 08:00:08;;;;;;;;;;;;;;;;;;5054756;28;19913;-68
2022/09/23 08:02:33;;;;;;;;;;;;;;;;;;5054173;28;19919;-68
2022/09/23 08:04:58;;;;;;;;;;;;;;;;;;5057484;28;19956;-68
2022/09/23 08:07:24;;;;;;;;;;;;;;;;;;5057401;28;20265;-68
2022/09/23 08:09:49;;;;;;;;;;;;;;;;;;5056788;28;19920;-68
2022/09/23 08:12:17;;;;;;;;;;;;;;;;;;5052426;28;19932;-68
2022/09/23 08:14:42;;;;;;;;;;;;;;;;;;5054069;28;19913;-68
2022/09/23 08:17:07;;;;;;;;;;;;;;;;;;5058155;28;19970;-67
2022/09/23 08:19:32;;;;;;;;;;;;;;;;;;5060005;28;19924;-68
2022/09/23 08:21:58;;;;;;;;;;;;;;;;;;5062931;28;19940;-68
2022/09/23 08:24:23;;;;;;;;;;;;;;;;;;5055533;28;19912;-68
2022/09/23 08:26:48;;;;;;;;;;;;;;;;;;5059606;28;19973;-67
2022/09/23 08:29:13;;;;;;;;;;;;;;;;;;5061093;28;19928;-67
2022/09/23 08:31:38;;;;;;;;;;;;;;;;;;5060644;28;19924;-68
2022/09/23 08:34:03;;;;;;;;;;;;;;;;;;5055975;28;19919;-68
2022/09/23 08:36:29;;;;;;;;;;;;;;;;;;5057313;28;19912;-68
2022/09/23 08:38:54;;;;;;;;;;;;;;;;;;5057348;28;20326;-68
2022/09/23 08:41:19;;;;;;;;;;;;;;;;;;5057212;28;19913;-68
2022/09/23 08:43:44;;;;;;;;;;;;;;;;;;5054341;28;19995;-68
2022/09/23 08:46:09;;;;;;;;;;;;;;;;;;5061175;28;19955;-68
2022/09/23 08:48:35;;;;;;;;;;;;;;;;;;5054996;28;19948;-68
2022/09/23 08:51:00;;;;;;;;;;;;;;;;;;5060151;28;19925;-68
2022/09/23 08:53:25;;;;;;;;;;;;;;;;;;5060205;28;19912;-68
2022/09/23 08:55:51;;;;;;;;;;;;;;;;;;5059262;28;19913;-68
2022/09/23 08:58:18;;;;;;;;;;;;;;;;;;5057667;28;20357;-68
2022/09/23 09:00:45;;;;;;;;;;;;;;;;;;5056848;28;20292;-68
2022/09/23 09:03:10;;;;;;;;;;;;;;;;;;5061112;28;19913;-71
2022/09/23 09:05:35;;;;;;;;;;;;;;;;;;5053779;28;19912;-71
2022/09/23 09:08:00;;;;;;;;;;;;;;;;;;5059795;28;19912;-69
2022/09/23 09:10:26;;;;;;;;;;;;;;;;;;5054099;28;19928;-70
2022/09/23 09:12:51;;;;;;;;;;;;;;;;;;5064962;28;20055;-70
2022/09/23 09:15:16;;;;;;;;;;;;;;;;;;5057157;28;20008;-74
2022/09/23 09:17:47;;;;;;;;;;;;;;;;;;5065635;28;19935;-70
2022/09/23 09:20:12;;;;;;;;;;;;;;;;;;5084338;28;19999;-71
2022/09/23 09:22:37;;;;;;;;;;;;;;;;;;5066459;28;19998;-71
2022/09/23 09:25:02;;;;;;;;;;;;;;;;;;5072343;28;19921;-71
2022/09/23 09:27:27;;;;;;;;;;;;;;;;;;5077506;28;19912;-70
2022/09/23 09:29:54;;;;;;;;;;;;;;;;;;5061448;28;19998;-73
2022/09/23 09:32:19;;;;;;;;;;;;;;;;;;5078521;28;19961;-70
2022/09/23 09:34:44;;;;;;;;;;;;;;;;;;5061190;28;19920;-72
2022/09/23 09:37:10;;;;;;;;;;;;;;;;;;5062666;28;19921;-70
2022/09/23 09:39:35;;;;;;;;;;;;;;;;;;5061422;28;20773;-71
2022/09/23 09:42:00;;;;;;;;;;;;;;;;;;5061667;28;19916;-71
2022/09/23 09:44:26;;;;;;;;;;;;;;;;;;5062287;28;19931;-70
2022/09/23 09:46:51;;;;;;;;;;;;;;;;;;5056193;28;19919;-71
2022/09/23 09:49:19;;;;;;;;;;;;;;;;;;5058110;28;20578;-71
2022/09/23 09:51:44;;;;;;;;;;;;;;;;;;5056100;28;20652;-71
2022/09/23 09:54:10;;;;;;;;;;;;;;;;;;5058967;28;19973;-70
2022/09/23 09:56:36;;;;;;;;;;;;;;;;;;5060793;28;19923;-71
2022/09/23 09:59:01;;;;;;;;;;;;;;;;;;5076163;28;19916;-71
2022/09/23 10:01:27;;;;;;;;;;;;;;;;;;5054936;28;20287;-72
2022/09/23 10:03:52;;;;;;;;;;;;;;;;;;5059518;28;20418;-73
2022/09/23 10:06:17;;;;;;;;;;;;;;;;;;5058986;28;20476;-69
2022/09/23 10:08:42;;;;;;;;;;;;;;;;;;5056245;28;19951;-67
2022/09/23 10:11:07;;;;;;;;;;;;;;;;;;5076472;28;20360;-68
2022/09/23 10:13:32;;;;;;;;;;;;;;;;;;5076890;28;19923;-68
2022/09/23 10:15:58;;;;;;;;;;;;;;;;;;5072692;28;19924;-67
2022/09/23 10:18:23;;;;;;;;;;;;;;;;;;5068137;28;20379;-67
2022/09/23 10:20:49;;;;;;;;;;;;;;;;;;5056731;28;19916;-67
2022/09/23 10:23:14;;;;;;;;;;;;;;;;;;5071496;28;19920;-69
2022/09/23 10:25:39;;;;;;;;;;;;;;;;;;5066349;28;20636;-68
2022/09/23 10:28:04;;;;;;;;;;;;;;;;;;5072456;28;19959;-68
2022/09/23 10:30:30;;;;;;;;;;;;;;;;;;5057972;28;19912;-68
2022/09/23 10:32:55;;;;;;;;;;;;;;;;;;5055021;28;20052;-69
2022/09/23 10:35:23;;;;;;;;;;;;;;;;;;5072945;28;19966;-69
2022/09/23 10:37:48;;;;;;;;;;;;;;;;;;5057935;28;20087;-68
2022/09/23 10:48:26;;;;;;;;;;;;;;;;;;5069808;28;19920;-67
2022/09/23 10:50:51;;;;;;;;;;;;;;;;;;5057135;28;19917;-67
2022/09/23 10:53:16;;;;;;;;;;;;;;;;;;5076562;28;19969;-68
2022/09/23 10:55:41;;;;;;;;;;;;;;;;;;5055175;28;19970;-69
2022/09/23 10:58:06;;;;;;;;;;;;;;;;;;5071091;28;19931;-69
2022/09/23 11:00:31;;;;;;;;;;;;;;;;;;5075273;28;19916;-69
2022/09/23 11:02:56;;;;;;;;;;;;;;;;;;5074540;28;19919;-69
2022/09/23 11:05:22;;;;;;;;;;;;;;;;;;5057014;28;20284;-69
2022/09/23 11:07:47;;;;;;;;;;;;;;;;;;5057853;28;20288;-68
2022/09/23 11:10:12;;;;;;;;;;;;;;;;;;5055863;28;19912;-69
2022/09/23 11:12:38;;;;;;;;;;;;;;;;;;5056484;28;19916;-68
2022/09/23 11:15:03;;;;;;;;;;;;;;;;;;5078637;28;19919;-69
2022/09/23 11:17:28;;;;;;;;;;;;;;;;;;5052269;28;19924;-68
2022/09/23 11:19:54;;;;;;;;;;;;;;;;;;5062698;28;19913;-69
2022/09/23 11:22:20;;;;;;;;;;;;;;;;;;5065582;28;19912;-67
2022/09/23 11:24:47;;;;;;;;;;;;;;;;;;5074695;28;19920;-67
2022/09/23 11:27:13;;;;;;;;;;;;;;;;;;5072054;28;19928;-68
2022/09/23 11:29:41;;;;;;;;;;;;;;;;;;5081613;28;19912;-69
2022/09/23 11:32:06;;;;;;;;;;;;;;;;;;5056986;28;19924;-67
2022/09/23 11:34:33;;;;;;;;;;;;;;;;;;5063229;28;20427;-68
2022/09/23 11:36:58;;;;;;;;;;;;;;;;;;5085997;28;20261;-67
2022/09/23 11:39:23;;;;;;;;;;;;;;;;;;5061510;28;19965;-68
2022/09/23 11:41:48;;;;;;;;;;;;;;;;;;5080885;28;19970;-67
2022/09/23 11:44:13;;;;;;;;;;;;;;;;;;5079566;28;20630;-69
2022/09/23 11:46:39;;;;;;;;;;;;;;;;;;5071952;28;19966;-68
2022/09/23 11:49:04;;;;;;;;;;;;;;;;;;5083118;28;19938;-68
2022/09/23 11:51:30;;;;;;;;;;;;;;;;;;5065714;28;20348;-69
2022/09/23 11:53:55;;;;;;;;;;;;;;;;;;5073500;28;19916;-68
2022/09/23 11:56:22;;;;;;;;;;;;;;;;;;5064897;28;19912;-68
2022/09/23 11:58:48;;;;;;;;;;;;;;;;;;5086269;28;20395;-68
2022/09/23 12:01:13;;;;;;;;;;;;;;;;;;5053948;28;19913;-69
2022/09/23 12:03:39;;;;;;;;;;;;;;;;;;5056059;28;20014;-68
2022/09/23 12:06:06;;;;;;;;;;;;;;;;;;5057576;28;19927;-69
2022/09/23 12:08:31;;;;;;;;;;;;;;;;;;5075092;28;20365;-68
2022/09/23 12:10:56;;;;;;;;;;;;;;;;;;5057316;28;19929;-68
2022/09/23 12:13:22;;;;;;;;;;;;;;;;;;5072280;28;19912;-68
2022/09/23 12:15:47;;;;;;;;;;;;;;;;;;5059935;28;19919;-68
2022/09/23 12:18:12;;;;;;;;;;;;;;;;;;5068313;28;19920;-69
2022/09/23 12:20:40;;;;;;;;;;;;;;;;;;5069632;28;19934;-70
2022/09/23 12:23:05;;;;;;;;;;;;;;;;;;5056155;28;19919;-69
2022/09/23 12:25:30;;;;;;;;;;;;;;;;;;5056910;28;19913;-70
2022/09/23 12:27:55;;;;;;;;;;;;;;;;;;5072861;28;20447;-68
2022/09/23 12:30:20;;;;;;;;;;;;;;;;;;5074402;28;20383;-69
2022/09/23 12:32:45;;;;;;;;;;;;;;;;;;5055713;28;19916;-68
2022/09/23 12:35:11;;;;;;;;;;;;;;;;;;5058915;28;19999;-69
2022/09/23 12:37:36;;;;;;;;;;;;;;;;;;5055808;28;19953;-68
2022/09/23 12:40:02;;;;;;;;;;;;;;;;;;5071078;28;19988;-69
2022/09/23 12:42:27;;;;;;;;;;;;;;;;;;5059080;28;19927;-63
2022/09/23 12:44:52;;;;;;;;;;;;;;;;;;5074465;28;19956;-68
2022/09/23 12:47:24;;;;;;;;;;;;;;;;;;5048589;28;20476;-70
2022/09/23 12:49:49;;;;;;;;;;;;;;;;;;5076653;28;19996;-70
2022/09/23 12:52:14;;;;;;;;;;;;;;;;;;5078035;28;20392;-68
2022/09/23 12:54:40;;;;;;;;;;;;;;;;;;5075029;28;19974;-69
2022/09/23 12:57:05;;;;;;;;;;;;;;;;;;5079548;28;20086;-68
2022/09/23 12:59:30;;;;;;;;;;;;;;;;;;5056316;28;20357;-69
2022/09/23 13:01:55;;;;;;;;;;;;;;;;;;5076427;28;19916;-71
2022/09/23 13:07:05;;;;;;;;;;;;;;;;;;5082064;28;20280;-71
2022/09/23 13:09:30;;;;;;;;;;;;;;;;;;5080239;28;19920;-69
2022/09/23 13:11:55;;;;;;;;;;;;;;;;;;5084884;28;20288;-67
2022/09/23 13:14:20;;;;;;;;;;;;;;;;;;5081793;28;19912;-67
2022/09/23 13:16:46;;;;;;;;;;;;;;;;;;5074576;28;19921;-66
2022/09/23 13:19:11;;;;;;;;;;;;;;;;;;5074606;28;20326;-66
2022/09/23 13:21:36;;;;;;;;;;;;;;;;;;5064209;28;19920;-66
2022/09/23 13:24:01;;;;;;;;;;;;;;;;;;5082904;28;20205;-67
2022/09/23 13:26:26;;;;;;;;;;;;;;;;;;5080352;28;19920;-67
2022/09/23 13:28:51;;;;;;;;;;;;;;;;;;5077946;28;20042;-67
2022/09/23 13:31:16;;;;;;;;;;;;;;;;;;5062131;28;20360;-67
2022/09/23 13:33:42;;;;;;;;;;;;;;;;;;5082322;28;19913;-68
2022/09/23 13:36:07;;;;;;;;;;;;;;;;;;5058740;28;19912;-67
2022/09/23 13:38:34;;;;;;;;;;;;;;;;;;5057414;28;19966;-67
2022/09/23 13:41:00;;;;;;;;;;;;;;;;;;5078996;28;19912;-66
2022/09/23 13:43:25;;;;;;;;;;;;;;;;;;5064499;28;20392;-66
2022/09/23 13:45:50;;;;;;;;;;;;;;;;;;5078629;28;19959;-66
2022/09/23 13:48:16;;;;;;;;;;;;;;;;;;5057766;28;19916;-66
2022/09/23 13:50:41;;;;;;;;;;;;;;;;;;5059249;28;19925;-68
2022/09/23 13:53:06;;;;;;;;;;;;;;;;;;5081707;28;20372;-65
2022/09/23 13:55:31;;;;;;;;;;;;;;;;;;5075854;28;19956;-66
2022/09/23 13:57:56;;;;;;;;;;;;;;;;;;5081397;28;19912;-67
2022/09/23 14:00:22;;;;;;;;;;;;;;;;;;5077322;28;20431;-69
2022/09/23 14:02:47;;;;;;;;;;;;;;;;;;5081804;28;20365;-66
2022/09/23 14:05:12;;;;;;;;;;;;;;;;;;5088560;28;19911;-66
2022/09/23 14:07:38;;;;;;;;;;;;;;;;;;5057798;28;19913;-66
2022/09/23 14:10:03;;;;;;;;;;;;;;;;;;5084412;28;19912;-67
2022/09/23 14:12:28;;;;;;;;;;;;;;;;;;5080532;28;19952;-67
2022/09/23 14:14:53;;;;;;;;;;;;;;;;;;5076727;28;19919;-68
2022/09/23 14:17:18;;;;;;;;;;;;;;;;;;5057987;28;19917;-67
2022/09/23 14:19:43;;;;;;;;;;;;;;;;;;5064554;28;19920;-67
2022/09/23 14:22:09;;;;;;;;;;;;;;;;;;5070264;28;19969;-67
2022/09/23 14:24:34;;;;;;;;;;;;;;;;;;5077193;28;19978;-68
2022/09/23 14:27:01;;;;;;;;;;;;;;;;;;5081870;28;21540;-66
2022/09/23 14:29:26;;;;;;;;;;;;;;;;;;5062986;28;19923;-67
2022/09/23 14:31:55;;;;;;;;;;;;;;;;;;5080873;28;19916;-67
2022/09/23 14:34:20;;;;;;;;;;;;;;;;;;5081619;28;20288;-66
2022/09/23 14:39:36;;;;;;;;;;;;;;;;;;5061115;28;19916;-68
2022/09/23 14:42:05;;;;;;;;;;;;;;;;;;5086510;28;19973;-68
2022/09/23 14:44:32;;;;;;;;;;;;;;;;;;5083603;28;19923;-67
2022/09/23 14:46:57;;;;;;;;;;;;;;;;;;5070807;28;19965;-68
2022/09/23 14:49:22;;;;;;;;;;;;;;;;;;5077312;28;19920;-67
2022/09/23 14:51:47;;;;;;;;;;;;;;;;;;5062469;28;19931;-69
2022/09/23 14:54:12;;;;;;;;;;;;;;;;;;5076146;28;19920;-67
2022/09/23 14:56:37;;;;;;;;;;;;;;;;;;5073967;28;20281;-68
2022/09/23 14:59:03;;;;;;;;;;;;;;;;;;5077963;28;20126;-68
2022/09/23 15:01:28;;;;;;;;;;;;;;;;;;5078698;28;19908;-67
2022/09/23 15:03:53;;;;;;;;;;;;;;;;;;5063760;28;19919;-69
2022/09/23 15:06:19;;;;;;;;;;;;;;;;;;5074095;28;19913;-69
2022/09/23 15:08:44;;;;;;;;;;;;;;;;;;5073054;28;19967;-66
2022/09/23 15:11:09;;;;;;;;;;;;;;;;;;5081584;28;19939;-67
2022/09/23 15:13:35;;;;;;;;;;;;;;;;;;5060720;28;19954;-68
2022/09/23 15:16:00;;;;;;;;;;;;;;;;;;5060601;28;19912;-69
2022/09/23 15:18:25;;;;;;;;;;;;;;;;;;5068037;28;19921;-68
2022/09/23 15:20:51;;;;;;;;;;;;;;;;;;5080627;28;19912;-68
2022/09/23 15:23:16;;;;;;;;;;;;;;;;;;5061761;28;19927;-68
2022/09/23 15:25:41;;;;;;;;;;;;;;;;;;5079371;28;19913;-68
2022/09/23 15:28:06;;;;;;;;;;;;;;;;;;5084992;28;19912;-68
2022/09/23 15:30:31;;;;;;;;;;;;;;;;;;5058309;28;19993;-69
2022/09/23 15:32:56;;;;;;;;;;;;;;;;;;5062328;28;20280;-69
2022/09/23 15:35:24;;;;;;;;;;;;;;;;;;5077967;28;20364;-67
2022/09/23 15:37:50;;;;;;;;;;;;;;;;;;5057114;28;19913;-68
2022/09/23 15:40:15;;;;;;;;;;;;;;;;;;5052025;28;19913;-68
2022/09/23 15:42:40;;;;;;;;;;;;;;;;;;5058336;28;20284;-69
2022/09/23 15:45:05;;;;;;;;;;;;;;;;;;5072568;28;20004;-68
2022/09/23 15:47:30;;;;;;;;;;;;;;;;;;5068731;28;19921;-67
2022/09/23 15:49:56;;;;;;;;;;;;;;;;;;5055842;28;19912;-68
2022/09/23 15:52:21;;;;;;;;;;;;;;;;;;5057221;28;19939;-68
2022/09/23 15:54:46;;;;;;;;;;;;;;;;;;5060836;28;19948;-68
2022/09/23 15:57:12;;;;;;;;;;;;;;;;;;5076297;28;20377;-68
2022/09/23 15:59:37;;;;;;;;;;;;;;;;;;5075313;28;19928;-71
2022/09/23 16:02:02;;;;;;;;;;;;;;;;;;5055646;28;19926;-68
2022/09/23 16:04:30;;;;;;;;;;;;;;;;;;5077667;28;19912;-72
2022/09/23 16:06:57;;;;;;;;;;;;;;;;;;5054628;28;20281;-68
2022/09/23 16:09:22;;;;;;;;;;;;;;;;;;5071531;28;19938;-67
2022/09/23 16:11:48;;;;;;;;;;;;;;;;;;5074389;28;19923;-68
2022/09/23 16:14:14;;;;;;;;;;;;;;;;;;5060550;28;20216;-67
2022/09/23 16:16:40;;;;;;;;;;;;;;;;;;5075416;28;20035;-67
2022/09/23 16:19:06;;;;;;;;;;;;;;;;;;5059914;28;19920;-68
2022/09/23 16:21:31;;;;;;;;;;;;;;;;;;5077951;28;19913;-67
2022/09/23 16:23:58;;;;;;;;;;;;;;;;;;5081126;28;19916;-66
2022/09/23 16:26:23;;;;;;;;;;;;;;;;;;5057129;28;19917;-67
2022/09/23 16:28:48;;;;;;;;;;;;;;;;;;5058108;28;20314;-67
2022/09/23 16:31:14;;;;;;;;;;;;;;;;;;5080543;28;19931;-68
2022/09/23 16:33:39;;;;;;;;;;;;;;;;;;5065488;28;19916;-66
2022/09/23 16:36:04;;;;;;;;;;;;;;;;;;5062759;28;19920;-68
2022/09/23 16:38:30;;;;;;;;;;;;;;;;;;5074149;28;19924;-67
2022/09/23 16:40:59;;;;;;;;;;;;;;;;;;5072200;28;19999;-68
2022/09/23 16:43:28;;;;;;;;;;;;;;;;;;5078879;28;20018;-68
2022/09/23 16:45:53;;;;;;;;;;;;;;;;;;5059880;28;20011;-68
2022/09/23 16:48:18;;;;;;;;;;;;;;;;;;5070932;28;20448;-68